Terminal Aerodrome Forecast
Issued by NWS

Home | Current Version | Previous Version | Text Only | Print | Product List | Glossary On
Versions: 1 2 3 4 5 6 7 8 9 10 11 12 13 14 15 16 17
000
FTUS43 KTOP 252100 AAA
TAFFOE
TAF AMD
KFOE 252106Z 2521/2618 36014KT P6SM OVC010
      TEMPO 2521/2523 OVC008
     FM260400 04011KT 6SM BR OVC006=

USA.gov is the U.S. government's official web portal to all federal, state and local government web resources and services.